Řízení letového provozu České republiky
Letiste: LKKB Aktualizace: 26.06.2016 15:06:12  UTC
 METAR LKKB 26.06. 15:00 ...
METAR LKKB 261500Z VRB03KT 9999 SCT046 BKN130 21/12 Q1017 NOSIG =
 TAF LKKB 26.06. 11:00 ...
TAF LKKB 261100Z 2612/2712 34010KT 9999 BKN035      BECMG 2614/2616 12004KT SCT040      BECMG 2619/2622 28010KT RA BKN020 BKN040      BECMG 2704/2706 22006KT NSW SCT018      TEMPO 2706/2712 SHRA BKN025=